Alamota, Kansas
Current Conditions -  °F | °C
As of 5:54 PM on Sunday 21 Dec 2014 (Local Time) from KGCK Reporting Station
Few Clouds Few Clouds  
Wind Chill: 39°   Ceiling: Unl
Heat Index: 44°   Visibility: 10mi
Dew Point: 36°   Wind: 10mph
Humidity: 73%   Direction: 150°SSE
Pressure: 29.56"   Gusts: NA
Location:  38.4812°N, 100.393°W
Report Text: KGCK 212354Z 15009KT 10SM FEW120 07/02 A2956 RMK AO2 SLP015 T00670022 10100 20050 56015
Loading
Personal Weather Stations






























Interactive Weather Map New forecast layout! Learn more

10-Day Weather Forecast

Advertisements
Track Severe Weather on mobile